• Join FlightAware (Why Join?)
  • Login
  • US Flag 
10:16PM EDT


 

Airport Tracker/Info


-or-


 

Live Flight TrackerFlight Track Log ✈ SGB252 ✈ 15-Jul-2013 ✈ KMIA - MUHA / HAV

Flight Track Log - Related Links

Times and Time Zones

All times are in EDT time to prevent confusion due to time zone crossing. See the SGB252 flight status page for this flight to view local times or setup timezone preferences in your user account.

Time Position Orientation Groundspeed Altitude Reporting Facility
EDT Latitude Longitude Course Direction KTS MPH feet Rate Location/Type
01:14PM 25.7920 -80.2930 271° West 21 24  Level FlightAware
01:14PM 25.7920 -80.2940 270° West 20 23 60 Level FlightAware
01:14PM 25.7920 -80.2950 270° West 19 22 60 Level FlightAware
01:14PM 25.7930 -80.2950 360° North 24 28 120 Level FlightAware
01:15PM 25.7930 -80.2960 270° West 32 37 120 Level FlightAware
01:15PM 25.7940 -80.2980 299° West 18 21 120 Level FlightAware
01:15PM 25.7950 -80.3000 299° West 18 21 120 Level FlightAware
01:16PM 25.7960 -80.3020 299° West 18 21 120 Level FlightAware
01:16PM 25.7970 -80.3040 299° West 29 33 120 Level FlightAware
01:17PM 25.7980 -80.3050 318° Northwest 21 24 180 Level FlightAware
01:17PM 25.7980 -80.3060 270° West 23 26 180 Level FlightAware
01:19PM 25.7980 -80.3070 270° West 24 28 180 Level FlightAware
01:20PM 25.7980 -80.3060 90° East 18 21 420 Level FlightAware
01:21PM 25.8000 -80.2660 87° East 173 199 800 1,020 Climbing FlightAware
01:21PM 25.7960 -80.2520 108° East 187 215 1,300 1,740 Climbing FlightAware
01:21PM 25.7830 -80.2250 118° Southeast 225 259 2,100 2,340 Climbing FlightAware
01:22PM 25.7720 -80.2030 119° Southeast 222 255 3,300 2,520 Climbing FlightAware
01:22PM 25.7550 -80.1680 118° Southeast 256 295 4,400 2,220 Climbing FlightAware
01:22PM 25.7440 -80.1510 126° Southeast 266 306 5,100 2,520 Climbing FlightAware
01:23PM 25.7320 -80.1420 146° Southeast 274 315 5,600 2,760 Climbing FlightAware
01:23PM 25.7110 -80.1390 173° South 283 326 6,400 3,000 Climbing FlightAware
01:23PM 25.6800 -80.1410 183° South 287 330 7,600 3,120 Climbing FlightAware
01:24PM 25.6590 -80.1480 197° South 288 331 8,500 3,420 Climbing FlightAware
01:24PM 25.6440 -80.1560 206° Southwest 287 330 9,200 2,520 Climbing FlightAware
01:24PM 25.5950 -80.1830 206° Southwest 310 357 10,700 1,620 Climbing FlightAware
01:25PM 25.5370 -80.2150 206° Southwest 362 417 11,400 1,320 Climbing FlightAware
01:26PM 25.4650 -80.2540 206° Southwest 392 451 12,700 1,980 Climbing FlightAware
01:27PM 25.3970 -80.2930 207° Southwest 399 459 14,400 2,280 Climbing FlightAware
01:27PM 25.3380 -80.3240 205° Southwest 405 466 15,700 2,040 Climbing FlightAware
01:28PM 25.2670 -80.3620 206° Southwest 411 473 17,000 1,920 Climbing FlightAware
01:29PM 25.2150 -80.4260 228° Southwest 427 491 18,300 1,920 Climbing FlightAware
01:29PM 25.1720 -80.5000 237° Southwest 434 499 19,600 1,860 Climbing FlightAware
01:30PM 25.1190 -80.5860 236° Southwest 439 505 21,000 1,620 Climbing FlightAware
01:31PM 25.0750 -80.6630 238° Southwest 442 509 22,000 660 Climbing FlightAware
01:31PM 25.0230 -80.7490 236° Southwest 430 495 22,000  Level FlightAware
01:32PM 24.9800 -80.8240 238° Southwest 423 487 22,000  Level FlightAware
01:33PM 24.9410 -80.8910 237° Southwest 425 489 22,000  Level FlightAware
01:33PM 24.8960 -80.9680 237° Southwest 424 488 22,000  Level FlightAware
01:34PM 24.8470 -81.0500 237° Southwest 425 489 22,000  Level FlightAware
01:35PM 24.8070 -81.1190 237° Southwest 425 489 22,000  Level FlightAware
01:36PM 24.7620 -81.1970 238° Southwest 423 487 22,000  Level FlightAware
01:36PM 24.7290 -81.2540 237° Southwest 422 486 22,000  Level FlightAware
01:37PM 24.6810 -81.3370 238° Southwest 423 487 22,000  Level FlightAware
01:38PM 24.6400 -81.4060 237° Southwest 423 487 22,000  Level FlightAware
01:38PM 24.5980 -81.4790 238° Southwest 423 487 22,000  Level FlightAware
01:39PM 24.5540 -81.5540 237° Southwest 424 488 22,000  Level FlightAware
01:40PM 24.5040 -81.6380 237° Southwest 425 489 22,000  Level FlightAware
01:40PM 24.4610 -81.7110 237° Southwest 425 489 22,000  Level FlightAware
01:41PM 24.4390 -81.7500 238° Southwest 422 486 22,000  Level FlightAware
01:42PM 24.3670 -81.8490 231° Southwest 429 494 22,000  Level FlightAware
01:42PM 24.3070 -81.9160 226° Southwest 424 488 22,000  Level FlightAware
01:43PM 24.2670 -82.0020 243° Southwest 422 486 22,000  Level FlightAware
01:44PM 24.2370 -82.0650 242° Southwest 427 491 22,000  Level FlightAware
01:44PM 24.1970 -82.1420 240° Southwest 423 487 22,000  Level FlightAware
01:45PM 24.1690 -82.2000 242° Southwest 423 487 22,000  Level FlightAware
01:46PM 24.1320 -82.2780 243° Southwest 423 487 22,000  Level FlightAware
01:46PM 24.1030 -82.3370 242° Southwest 423 487 22,000  Level FlightAware
01:47PM 24.0650 -82.4140 242° Southwest 423 487 22,000  Level FlightAware
01:56PM 23.2916 -82.4105 180° South  Level Estimated
01:57PM 23.1975 -82.4100 180° South  Level Estimated
01:58PM 23.1033 -82.4096 180° South  Level Estimated
01:59PM 23.0092 -82.4092 180° South  Level Estimated
02:00PM 22.9891 -82.4091 180° South  Level Estimated
02:01PM 22.9891 -82.4091 51° Northeast  Level Estimated
02:02PM 22.9891 -82.4091 51° Northeast  Level Estimated
02:03PM 22.9891 -82.4091 51° Northeast  Level Estimated
02:04PM 22.9891 -82.4091 51° Northeast  Level Estimated
02:05PM 22.9891 -82.4091 51° Northeast  Level Estimated
02:06PM 22.9891 -82.4091 51° Northeast  Level Estimated
02:07PM 22.9891 -82.4091 51° Northeast  Level Estimated
02:08PM 22.9891 -82.4091 51° Northeast  Level Estimated
02:09PM 22.9891 -82.4091 51° Northeast  Level Estimated
02:10PM 22.9891 -82.4091 51° Northeast  Level Estimated
02:11PM 22.9891 -82.4091 51° Northeast  Level Estimated
02:12PM 22.9891 -82.4091 51° Northeast  Level Estimated
02:13PM 22.9891 -82.4091 51° Northeast  Level Estimated
02:14PM 22.9891 -82.4091 51° Northeast  Level Estimated
02:15PM 22.9891 -82.4091 51° Northeast  Level Estimated